Time;durP1;ratioP1;P1;durP2;ratioP2;P2;SDS_P1;SDS_P2;PMS_P1;PMS_P2;Temp;Humidity;BMP_temperature;BMP_pressure;BME280_temperature;BME280_humidity;BME280_pressure;Samples;Min_cycle;Max_cycle;Signal;HPM_P1;HPM_P2
2024/02/28 00:00:41;;;;;;;6.60;6.50;;;;;;;;;;5020494;28;20478;-72
2024/02/28 00:03:08;;;;;;;6.73;6.63;;;;;;;;;;5026942;28;20473;-72
2024/02/28 00:05:36;;;;;;;6.60;6.50;;;;;;;;;;5024270;28;20480;-72
2024/02/28 00:08:03;;;;;;;6.33;6.23;;;;;;;;;;5022325;28;20491;-72
2024/02/28 00:10:30;;;;;;;6.00;5.90;;;;;;;;;;5025299;28;20467;-72
2024/02/28 00:12:57;;;;;;;6.60;6.50;;;;;;;;;;5025921;28;20498;-72
2024/02/28 00:15:39;;;;;;;6.37;6.27;;;;;;;;;;5026532;28;20472;-72
2024/02/28 00:18:10;;;;;;;6.43;6.33;;;;;;;;;;5026807;28;20580;-72
2024/02/28 00:20:37;;;;;;;6.93;6.83;;;;;;;;;;5028543;28;20462;-72
2024/02/28 00:23:04;;;;;;;6.00;5.90;;;;;;;;;;5020755;28;20460;-72
2024/02/28 00:25:31;;;;;;;6.60;6.50;;;;;;;;;;5023065;28;20533;-72
2024/02/28 00:27:58;;;;;;;6.70;6.60;;;;;;;;;;5024636;28;20466;-72
2024/02/28 00:30:27;;;;;;;6.27;6.17;;;;;;;;;;5028130;28;20615;-72
2024/02/28 00:32:54;;;;;;;6.17;6.07;;;;;;;;;;5024116;28;20832;-72
2024/02/28 00:35:23;;;;;;;5.80;5.70;;;;;;;;;;5028228;28;20467;-72
2024/02/28 00:37:50;;;;;;;6.20;6.10;;;;;;;;;;5027708;28;20843;-72
2024/02/28 00:40:17;;;;;;;6.47;6.37;;;;;;;;;;5027808;28;20890;-72
2024/02/28 00:42:45;;;;;;;6.23;6.13;;;;;;;;;;5021728;28;20472;-72
2024/02/28 00:45:13;;;;;;;6.37;6.27;;;;;;;;;;5022472;28;20491;-72
2024/02/28 00:47:40;;;;;;;5.93;5.83;;;;;;;;;;5027443;28;20474;-72
2024/02/28 00:50:07;;;;;;;6.13;6.03;;;;;;;;;;5026426;28;20481;-72
2024/02/28 00:52:35;;;;;;;6.10;6.00;;;;;;;;;;5025341;28;21026;-72
2024/02/28 00:55:04;;;;;;;5.73;5.63;;;;;;;;;;5023788;28;20571;-72
2024/02/28 00:57:31;;;;;;;6.10;6.00;;;;;;;;;;5013475;28;20471;-72
2024/02/28 00:59:58;;;;;;;6.10;6.00;;;;;;;;;;4991006;28;20492;-72
2024/02/28 01:02:26;;;;;;;6.10;6.00;;;;;;;;;;4993427;28;20476;-72
2024/02/28 01:04:53;;;;;;;5.80;5.70;;;;;;;;;;4993281;28;20797;-72
2024/02/28 01:07:20;;;;;;;6.03;5.93;;;;;;;;;;4992100;28;20487;-72
2024/02/28 01:09:48;;;;;;;6.73;6.63;;;;;;;;;;4994319;28;22526;-72
2024/02/28 01:12:15;;;;;;;6.93;6.83;;;;;;;;;;4991626;28;20494;-72
2024/02/28 01:14:43;;;;;;;6.70;6.60;;;;;;;;;;4990164;28;20465;-72
2024/02/28 01:17:10;;;;;;;6.57;6.47;;;;;;;;;;4992262;28;20486;-72
2024/02/28 01:19:37;;;;;;;6.07;5.97;;;;;;;;;;4991887;28;20496;-72
2024/02/28 01:22:04;;;;;;;5.60;5.50;;;;;;;;;;4994526;28;20462;-72
2024/02/28 01:24:33;;;;;;;6.17;6.07;;;;;;;;;;4993213;28;20484;-72
2024/02/28 01:27:01;;;;;;;5.60;5.50;;;;;;;;;;4992968;28;20479;-72
2024/02/28 01:29:29;;;;;;;6.17;6.07;;;;;;;;;;4993008;28;20450;-71
2024/02/28 01:31:56;;;;;;;5.90;5.80;;;;;;;;;;4992881;28;20464;-72
2024/02/28 01:34:24;;;;;;;5.80;5.70;;;;;;;;;;4993884;28;20508;-72
2024/02/28 01:36:51;;;;;;;5.50;5.40;;;;;;;;;;4993960;28;21301;-72
2024/02/28 01:39:18;;;;;;;6.00;5.90;;;;;;;;;;4992945;28;20561;-72
2024/02/28 01:41:52;;;;;;;6.10;6.00;;;;;;;;;;4992744;28;21354;-71
2024/02/28 01:44:20;;;;;;;6.40;6.30;;;;;;;;;;4992890;28;20478;-72
2024/02/28 01:49:29;;;;;;;6.00;5.90;;;;;;;;;;4994898;28;20564;-72
2024/02/28 01:51:57;;;;;;;6.20;6.10;;;;;;;;;;4994657;28;20490;-72
2024/02/28 01:54:25;;;;;;;5.67;5.57;;;;;;;;;;4997364;28;20737;-72
2024/02/28 01:56:52;;;;;;;6.33;6.23;;;;;;;;;;4999881;28;21176;-72
2024/02/28 01:59:20;;;;;;;6.03;5.93;;;;;;;;;;5027090;28;20458;-72
2024/02/28 02:01:47;;;;;;;6.50;6.40;;;;;;;;;;5030634;28;20477;-72
2024/02/28 02:04:14;;;;;;;6.00;5.90;;;;;;;;;;5024181;28;20468;-71
2024/02/28 02:06:43;;;;;;;6.20;6.10;;;;;;;;;;5028475;28;20468;-72
2024/02/28 02:09:11;;;;;;;5.43;5.33;;;;;;;;;;5024927;28;20458;-71
2024/02/28 02:11:38;;;;;;;5.90;5.80;;;;;;;;;;5031000;28;20476;-72
2024/02/28 02:14:07;;;;;;;5.57;5.47;;;;;;;;;;5029039;28;20524;-72
2024/02/28 02:16:35;;;;;;;5.47;5.37;;;;;;;;;;5027725;28;20465;-72
2024/02/28 02:19:02;;;;;;;5.37;5.27;;;;;;;;;;5030319;28;20507;-72
2024/02/28 02:21:32;;;;;;;5.83;5.73;;;;;;;;;;5031134;28;20461;-72
2024/02/28 02:24:00;;;;;;;5.80;5.70;;;;;;;;;;5029965;28;20498;-72
2024/02/28 02:26:28;;;;;;;5.60;5.50;;;;;;;;;;5026001;28;20838;-72
2024/02/28 02:28:55;;;;;;;6.00;5.90;;;;;;;;;;5020922;28;20577;-72
2024/02/28 02:31:22;;;;;;;6.10;6.00;;;;;;;;;;5030160;28;20461;-72
2024/02/28 02:33:49;;;;;;;6.40;6.30;;;;;;;;;;5030261;28;20482;-72
2024/02/28 02:36:17;;;;;;;6.30;6.20;;;;;;;;;;5023924;28;20526;-72
2024/02/28 02:38:44;;;;;;;5.60;5.50;;;;;;;;;;5029537;28;20465;-72
2024/02/28 02:41:13;;;;;;;6.20;6.10;;;;;;;;;;5028638;28;20465;-72
2024/02/28 02:43:40;;;;;;;5.70;5.60;;;;;;;;;;5025338;28;20480;-72
2024/02/28 02:46:07;;;;;;;5.87;5.77;;;;;;;;;;5027765;28;20565;-72
2024/02/28 02:48:34;;;;;;;5.80;5.70;;;;;;;;;;5026874;28;20465;-72
2024/02/28 02:51:01;;;;;;;6.10;6.00;;;;;;;;;;5027270;28;20485;-72
2024/02/28 02:53:28;;;;;;;6.60;6.50;;;;;;;;;;5024359;28;20492;-72
2024/02/28 02:55:56;;;;;;;6.97;6.87;;;;;;;;;;5029910;28;20465;-72
2024/02/28 02:58:24;;;;;;;6.90;6.80;;;;;;;;;;5023967;28;20474;-72
2024/02/28 03:00:51;;;;;;;7.40;7.30;;;;;;;;;;5029098;28;21107;-71
2024/02/28 03:03:18;;;;;;;7.53;7.43;;;;;;;;;;5025610;28;20478;-71
2024/02/28 03:05:46;;;;;;;8.20;8.10;;;;;;;;;;5023333;28;20487;-71
2024/02/28 03:08:13;;;;;;;8.53;8.43;;;;;;;;;;5027983;28;20463;-70
2024/02/28 03:10:41;;;;;;;9.20;9.10;;;;;;;;;;5025005;28;20474;-70
2024/02/28 03:13:08;;;;;;;9.20;9.10;;;;;;;;;;5020151;28;20494;-70
2024/02/28 03:15:37;;;;;;;10.60;10.40;;;;;;;;;;5020299;28;20459;-70
2024/02/28 03:18:05;;;;;;;11.20;11.00;;;;;;;;;;5020926;28;20471;-70
2024/02/28 03:20:32;;;;;;;11.53;11.27;;;;;;;;;;5029253;28;20451;-71
2024/02/28 03:22:59;;;;;;;13.20;12.90;;;;;;;;;;5023947;28;20483;-71
2024/02/28 03:25:28;;;;;;;14.50;14.10;;;;;;;;;;5020779;28;20520;-70
2024/02/28 03:27:55;;;;;;;14.90;14.50;;;;;;;;;;5021617;28;20952;-71
2024/02/28 03:30:22;;;;;;;14.90;14.50;;;;;;;;;;5029267;28;20947;-71
2024/02/28 03:32:50;;;;;;;14.50;14.10;;;;;;;;;;5020375;28;20468;-71
2024/02/28 03:35:18;;;;;;;18.60;18.00;;;;;;;;;;5018384;28;20845;-70
2024/02/28 03:37:45;;;;;;;19.60;19.00;;;;;;;;;;5025919;28;20481;-70
2024/02/28 03:40:12;;;;;;;19.97;19.27;;;;;;;;;;5028847;28;20550;-71
2024/02/28 03:42:40;;;;;;;20.77;20.07;;;;;;;;;;5021587;28;20470;-71
2024/02/28 03:45:08;;;;;;;20.70;20.00;;;;;;;;;;5025892;28;21047;-71
2024/02/28 03:47:35;;;;;;;20.30;19.60;;;;;;;;;;5025983;28;20467;-71
2024/02/28 03:50:04;;;;;;;20.07;19.37;;;;;;;;;;5029433;28;20550;-71
2024/02/28 03:52:31;;;;;;;21.20;20.50;;;;;;;;;;5027929;28;20934;-72
2024/02/28 03:54:58;;;;;;;21.13;20.43;;;;;;;;;;5019446;28;20499;-71
2024/02/28 03:57:25;;;;;;;20.23;19.53;;;;;;;;;;5028981;28;20460;-72
2024/02/28 03:59:52;;;;;;;21.13;20.43;;;;;;;;;;5023939;28;20869;-72
2024/02/28 04:02:19;;;;;;;21.93;21.13;;;;;;;;;;5020269;28;20483;-72
2024/02/28 04:04:46;;;;;;;23.20;22.40;;;;;;;;;;5028884;28;20462;-72
2024/02/28 04:07:16;;;;;;;23.10;22.30;;;;;;;;;;5025581;28;20509;-72
2024/02/28 04:09:43;;;;;;;22.87;22.07;;;;;;;;;;5023931;28;20498;-72
2024/02/28 04:12:10;;;;;;;22.40;21.60;;;;;;;;;;5026396;28;20464;-72
2024/02/28 04:14:40;;;;;;;22.17;21.37;;;;;;;;;;5015309;28;20853;-72
2024/02/28 04:17:07;;;;;;;21.67;20.87;;;;;;;;;;5025280;28;20478;-72
2024/02/28 04:19:37;;;;;;;23.10;22.30;;;;;;;;;;5022812;28;20734;-72
2024/02/28 04:22:04;;;;;;;22.80;22.00;;;;;;;;;;5027474;28;20823;-72
2024/02/28 04:24:33;;;;;;;23.60;22.80;;;;;;;;;;5028333;28;20492;-72
2024/02/28 04:27:02;;;;;;;22.60;21.80;;;;;;;;;;5023959;28;20470;-72
2024/02/28 04:29:30;;;;;;;22.80;22.00;;;;;;;;;;5021362;28;20469;-71
2024/02/28 04:31:57;;;;;;;22.03;21.23;;;;;;;;;;5019465;28;20989;-71
2024/02/28 04:34:24;;;;;;;21.63;20.83;;;;;;;;;;5024437;28;20489;-71
2024/02/28 04:36:51;;;;;;;21.97;21.17;;;;;;;;;;5023990;28;20984;-71
2024/02/28 04:39:18;;;;;;;21.53;20.83;;;;;;;;;;5024014;28;20472;-71
2024/02/28 04:41:46;;;;;;;20.27;19.57;;;;;;;;;;5026300;28;20469;-71
2024/02/28 04:44:13;;;;;;;18.13;17.53;;;;;;;;;;5028120;28;20495;-71
2024/02/28 04:46:41;;;;;;;18.80;18.20;;;;;;;;;;5021300;28;20471;-70
2024/02/28 04:49:09;;;;;;;17.90;17.40;;;;;;;;;;5027627;28;20559;-71
2024/02/28 04:51:36;;;;;;;17.10;16.60;;;;;;;;;;5024703;28;20885;-72
2024/02/28 04:54:03;;;;;;;17.87;17.37;;;;;;;;;;5024514;28;21018;-71
2024/02/28 04:56:31;;;;;;;17.37;16.87;;;;;;;;;;5020978;28;20494;-71
2024/02/28 04:58:59;;;;;;;18.73;18.13;;;;;;;;;;5027955;28;20471;-71
2024/02/28 05:01:28;;;;;;;19.10;18.50;;;;;;;;;;5024669;28;20493;-70
2024/02/28 05:03:55;;;;;;;18.73;18.13;;;;;;;;;;5013997;28;20941;-70
2024/02/28 05:06:22;;;;;;;19.37;18.77;;;;;;;;;;5016122;28;20472;-71
2024/02/28 05:08:49;;;;;;;20.57;19.87;;;;;;;;;;5016062;28;20474;-71
2024/02/28 05:11:16;;;;;;;20.57;19.87;;;;;;;;;;5020734;28;20465;-71
2024/02/28 05:13:43;;;;;;;21.47;20.67;;;;;;;;;;5014519;28;20550;-71
2024/02/28 05:16:15;;;;;;;20.57;19.87;;;;;;;;;;5018980;28;20467;-70
2024/02/28 05:18:42;;;;;;;19.83;19.13;;;;;;;;;;5019294;28;20482;-70
2024/02/28 05:21:10;;;;;;;19.57;18.90;;;;;;;;;;5015274;28;20820;-70
2024/02/28 05:23:37;;;;;;;20.60;19.90;;;;;;;;;;5021744;28;20461;-70
2024/02/28 05:26:06;;;;;;;20.60;19.90;;;;;;;;;;5022437;28;20491;-70
2024/02/28 05:28:34;;;;;;;19.47;18.83;;;;;;;;;;5024464;28;20468;-72
2024/02/28 05:31:02;;;;;;;21.47;20.70;;;;;;;;;;5025663;28;20857;-69
2024/02/28 05:33:31;;;;;;;21.23;20.50;;;;;;;;;;5023398;28;20828;-71
2024/02/28 05:35:59;;;;;;;20.87;20.17;;;;;;;;;;5020981;28;20461;-71
2024/02/28 05:38:26;;;;;;;20.40;19.70;;;;;;;;;;5025625;28;20551;-71
2024/02/28 05:40:53;;;;;;;20.30;19.60;;;;;;;;;;5024690;28;20471;-70
2024/02/28 05:43:20;;;;;;;20.03;19.33;;;;;;;;;;5027508;28;20467;-71
2024/02/28 05:45:48;;;;;;;19.47;18.77;;;;;;;;;;5030511;28;20667;-72
2024/02/28 05:48:15;;;;;;;20.60;19.87;;;;;;;;;;5026476;28;20758;-70
2024/02/28 05:50:43;;;;;;;20.33;19.63;;;;;;;;;;5025504;28;20588;-71
2024/02/28 05:53:10;;;;;;;20.40;19.70;;;;;;;;;;5029882;28;20494;-71
2024/02/28 05:55:38;;;;;;;19.70;19.00;;;;;;;;;;5022322;28;20498;-69
2024/02/28 05:58:05;;;;;;;20.03;19.33;;;;;;;;;;5029329;28;20452;-71
2024/02/28 06:00:32;;;;;;;20.10;19.40;;;;;;;;;;5026014;28;20492;-70
2024/02/28 06:02:59;;;;;;;19.73;19.03;;;;;;;;;;5029481;28;20464;-71
2024/02/28 06:05:27;;;;;;;20.53;19.83;;;;;;;;;;5030105;28;20783;-70
2024/02/28 06:07:55;;;;;;;20.43;19.73;;;;;;;;;;5019219;28;20464;-72
2024/02/28 06:10:22;;;;;;;20.33;19.63;;;;;;;;;;5021806;28;20492;-69
2024/02/28 06:12:50;;;;;;;21.43;20.63;;;;;;;;;;5023199;28;21236;-72
2024/02/28 06:15:17;;;;;;;22.07;21.27;;;;;;;;;;5017394;28;20560;-69
2024/02/28 06:17:44;;;;;;;23.00;22.10;;;;;;;;;;5028420;28;20978;-70
2024/02/28 06:20:11;;;;;;;23.43;22.53;;;;;;;;;;5026310;28;20820;-72
2024/02/28 06:22:39;;;;;;;22.93;22.03;;;;;;;;;;5029893;28;20547;-71
2024/02/28 06:25:17;;;;;;;22.23;21.43;;;;;;;;;;5026405;28;20544;-69
2024/02/28 06:27:44;;;;;;;23.07;22.17;;;;;;;;;;5022830;28;20505;-70
2024/02/28 06:30:13;;;;;;;23.30;22.40;;;;;;;;;;5027062;28;20469;-72
2024/02/28 06:32:40;;;;;;;22.37;21.47;;;;;;;;;;5025389;28;20507;-70
2024/02/28 06:35:08;;;;;;;23.07;22.17;;;;;;;;;;5028999;28;20499;-70
2024/02/28 06:37:35;;;;;;;22.90;22.00;;;;;;;;;;5024193;28;20496;-70
2024/02/28 06:40:03;;;;;;;23.93;23.00;;;;;;;;;;5024632;28;20499;-71
2024/02/28 06:42:32;;;;;;;22.57;21.67;;;;;;;;;;5023341;28;20465;-71
2024/02/28 06:44:59;;;;;;;24.00;23.10;;;;;;;;;;5026925;28;20523;-71
2024/02/28 06:47:26;;;;;;;21.70;20.90;;;;;;;;;;5028304;28;20459;-70
2024/02/28 06:49:53;;;;;;;22.90;22.00;;;;;;;;;;5025593;28;20472;-70
2024/02/28 06:52:21;;;;;;;23.10;22.20;;;;;;;;;;5027080;28;20485;-70
2024/02/28 06:54:48;;;;;;;22.10;21.27;;;;;;;;;;5014419;28;20489;-70
2024/02/28 06:57:14;;;;;;;22.60;21.70;;;;;;;;;;5018103;28;20887;-69
2024/02/28 06:59:43;;;;;;;23.10;22.20;;;;;;;;;;5018678;28;20461;-70
2024/02/28 07:02:10;;;;;;;21.70;20.90;;;;;;;;;;5024611;28;20492;-70
2024/02/28 07:04:37;;;;;;;22.43;21.53;;;;;;;;;;5027129;28;20464;-69
2024/02/28 07:07:05;;;;;;;20.57;19.77;;;;;;;;;;5022384;28;20520;-71
2024/02/28 07:09:32;;;;;;;22.13;21.33;;;;;;;;;;5021583;28;20555;-71
2024/02/28 07:12:00;;;;;;;21.67;20.87;;;;;;;;;;5027535;28;20931;-71
2024/02/28 07:14:27;;;;;;;21.97;21.10;;;;;;;;;;5025753;28;20491;-72
2024/02/28 07:16:56;;;;;;;21.53;20.73;;;;;;;;;;5022356;28;20476;-70
2024/02/28 07:19:23;;;;;;;21.90;21.00;;;;;;;;;;5028304;28;20453;-71
2024/02/28 07:21:50;;;;;;;21.17;20.37;;;;;;;;;;5020653;28;20827;-71
2024/02/28 07:24:17;;;;;;;22.03;21.13;;;;;;;;;;5020072;28;20471;-71
2024/02/28 07:26:44;;;;;;;20.40;19.60;;;;;;;;;;5019948;28;20469;-71
2024/02/28 07:29:12;;;;;;;20.50;19.70;;;;;;;;;;5015207;28;20473;-71
2024/02/28 07:31:40;;;;;;;18.60;17.90;;;;;;;;;;5022146;28;20469;-71
2024/02/28 07:34:09;;;;;;;19.30;18.60;;;;;;;;;;5023114;28;20572;-71
2024/02/28 07:36:36;;;;;;;19.30;18.60;;;;;;;;;;5022489;28;20492;-70
2024/02/28 07:39:03;;;;;;;18.47;17.77;;;;;;;;;;5027495;28;20831;-71
2024/02/28 07:41:30;;;;;;;18.53;17.83;;;;;;;;;;5027640;28;20465;-71
2024/02/28 07:43:57;;;;;;;18.60;17.90;;;;;;;;;;5020511;28;20469;-70
2024/02/28 07:46:24;;;;;;;17.20;16.60;;;;;;;;;;5018991;28;20512;-70
2024/02/28 07:48:52;;;;;;;17.17;16.57;;;;;;;;;;5017509;28;20465;-72
2024/02/28 07:51:21;;;;;;;17.30;16.70;;;;;;;;;;5020056;28;20484;-70
2024/02/28 07:53:49;;;;;;;17.50;16.90;;;;;;;;;;5018391;28;20465;-70
2024/02/28 07:56:19;;;;;;;17.10;16.50;;;;;;;;;;5017911;28;20506;-71
2024/02/28 07:58:46;;;;;;;16.53;15.93;;;;;;;;;;5012442;28;20473;-71
2024/02/28 08:01:13;;;;;;;17.00;16.40;;;;;;;;;;5016470;28;20913;-70
2024/02/28 08:03:41;;;;;;;16.70;16.10;;;;;;;;;;5015167;28;20466;-71
2024/02/28 08:06:08;;;;;;;15.80;15.30;;;;;;;;;;5013696;28;20553;-71
2024/02/28 08:08:37;;;;;;;16.10;15.60;;;;;;;;;;5014712;28;20575;-71
2024/02/28 08:11:04;;;;;;;15.80;15.30;;;;;;;;;;5016222;28;20461;-72
2024/02/28 08:13:32;;;;;;;15.37;14.87;;;;;;;;;;5014409;28;20509;-70
2024/02/28 08:15:59;;;;;;;15.27;14.77;;;;;;;;;;5016101;28;20497;-69
2024/02/28 08:18:27;;;;;;;15.00;14.50;;;;;;;;;;5016440;28;20453;-70
2024/02/28 08:20:57;;;;;;;14.30;13.90;;;;;;;;;;5015071;28;20465;-70
2024/02/28 08:23:26;;;;;;;15.13;14.63;;;;;;;;;;5014756;28;20546;-70
2024/02/28 08:25:54;;;;;;;14.17;13.77;;;;;;;;;;5014015;28;20465;-71
2024/02/28 08:28:21;;;;;;;13.90;13.50;;;;;;;;;;5013336;28;20491;-72
2024/02/28 08:30:50;;;;;;;14.00;13.60;;;;;;;;;;5014213;28;20471;-71
2024/02/28 08:33:18;;;;;;;13.33;12.93;;;;;;;;;;5014078;28;20477;-72
2024/02/28 08:35:45;;;;;;;12.63;12.33;;;;;;;;;;5014737;28;20489;-72
2024/02/28 08:38:12;;;;;;;12.70;12.40;;;;;;;;;;5013633;28;20811;-71
2024/02/28 08:40:39;;;;;;;12.67;12.37;;;;;;;;;;5013277;28;20466;-70
2024/02/28 08:43:08;;;;;;;12.50;12.20;;;;;;;;;;5011875;28;20457;-70
2024/02/28 08:45:35;;;;;;;12.37;12.07;;;;;;;;;;5014894;28;20478;-72
2024/02/28 08:48:02;;;;;;;13.20;12.80;;;;;;;;;;5013701;28;20472;-71
2024/02/28 08:50:29;;;;;;;12.20;11.90;;;;;;;;;;5014486;28;20489;-71
2024/02/28 08:52:57;;;;;;;12.83;12.43;;;;;;;;;;5012327;28;20466;-71
2024/02/28 08:55:24;;;;;;;12.60;12.20;;;;;;;;;;5010959;28;21000;-72
2024/02/28 08:57:51;;;;;;;13.20;12.80;;;;;;;;;;5014112;28;20499;-71
2024/02/28 09:00:21;;;;;;;12.60;12.20;;;;;;;;;;5015877;28;20489;-72
2024/02/28 09:02:48;;;;;;;13.17;12.77;;;;;;;;;;5014762;28;20466;-72
2024/02/28 09:05:15;;;;;;;13.17;12.77;;;;;;;;;;5011490;28;20465;-72
2024/02/28 09:07:43;;;;;;;13.30;12.90;;;;;;;;;;5012223;28;20475;-70
2024/02/28 09:10:11;;;;;;;14.20;13.70;;;;;;;;;;5011823;28;20517;-71
2024/02/28 09:12:38;;;;;;;14.30;13.80;;;;;;;;;;5009788;28;20461;-70
2024/02/28 09:15:05;;;;;;;13.60;13.20;;;;;;;;;;5012790;28;20478;-72
2024/02/28 09:17:34;;;;;;;15.10;14.50;;;;;;;;;;5011138;28;20852;-72
2024/02/28 09:20:04;;;;;;;14.80;14.30;;;;;;;;;;5010881;28;20949;-71
2024/02/28 09:22:31;;;;;;;15.23;14.63;;;;;;;;;;5013276;28;20472;-71
2024/02/28 09:24:58;;;;;;;15.23;14.63;;;;;;;;;;5014179;28;20873;-72
2024/02/28 09:27:25;;;;;;;15.10;14.50;;;;;;;;;;5012417;28;20474;-71
2024/02/28 09:29:53;;;;;;;15.30;14.70;;;;;;;;;;5012479;28;20470;-71
2024/02/28 09:32:20;;;;;;;15.67;15.07;;;;;;;;;;5012207;28;20453;-71
2024/02/28 09:34:49;;;;;;;15.60;15.00;;;;;;;;;;5010042;28;20497;-71
2024/02/28 09:37:31;;;;;;;15.80;15.20;;;;;;;;;;5012191;28;20799;-71
2024/02/28 09:39:58;;;;;;;15.97;15.27;;;;;;;;;;5015196;28;20517;-71
2024/02/28 09:42:26;;;;;;;15.70;15.10;;;;;;;;;;5013222;28;20936;-71
2024/02/28 09:44:53;;;;;;;15.37;14.77;;;;;;;;;;5014053;28;20884;-72
2024/02/28 09:47:20;;;;;;;15.83;15.13;;;;;;;;;;5009279;28;20465;-70
2024/02/28 09:49:51;;;;;;;15.57;14.87;;;;;;;;;;5011258;28;20913;-72
2024/02/28 09:52:19;;;;;;;15.73;15.03;;;;;;;;;;5014544;28;20839;-71
2024/02/28 09:54:46;;;;;;;15.80;15.10;;;;;;;;;;5014124;28;20960;-71
2024/02/28 09:57:14;;;;;;;15.70;15.00;;;;;;;;;;5013909;28;20492;-72
2024/02/28 09:59:42;;;;;;;15.60;14.90;;;;;;;;;;5013560;28;20476;-72
2024/02/28 10:02:11;;;;;;;15.60;14.90;;;;;;;;;;5014033;28;20628;-71
2024/02/28 10:04:38;;;;;;;15.67;14.97;;;;;;;;;;5013608;28;20481;-72
2024/02/28 10:07:14;;;;;;;15.43;14.83;;;;;;;;;;5011045;28;20460;-72
2024/02/28 10:09:41;;;;;;;15.30;14.70;;;;;;;;;;5012145;28;20474;-72
2024/02/28 10:12:08;;;;;;;15.67;14.97;;;;;;;;;;5016703;28;20465;-71
2024/02/28 10:14:35;;;;;;;15.43;14.83;;;;;;;;;;5015790;28;20472;-72
2024/02/28 10:17:03;;;;;;;15.70;15.00;;;;;;;;;;5016859;28;20508;-72
2024/02/28 10:19:30;;;;;;;16.20;15.50;;;;;;;;;;5017686;28;20955;-71
2024/02/28 10:21:57;;;;;;;15.70;15.10;;;;;;;;;;5018122;28;20885;-71
2024/02/28 10:24:27;;;;;;;15.70;15.10;;;;;;;;;;5017124;28;20767;-72
2024/02/28 10:26:56;;;;;;;15.70;15.10;;;;;;;;;;5017103;28;20467;-71
2024/02/28 10:29:24;;;;;;;15.73;15.13;;;;;;;;;;5016695;28;20471;-71
2024/02/28 10:31:51;;;;;;;15.20;14.60;;;;;;;;;;5017301;28;21287;-71
2024/02/28 10:34:17;;;;;;;15.20;14.60;;;;;;;;;;5016519;28;20459;-70
2024/02/28 10:36:46;;;;;;;15.33;14.73;;;;;;;;;;5016105;28;21011;-70
2024/02/28 10:39:13;;;;;;;15.50;14.90;;;;;;;;;;5015649;28;20467;-71
2024/02/28 10:41:43;;;;;;;15.13;14.53;;;;;;;;;;5015881;28;20524;-70
2024/02/28 10:44:11;;;;;;;15.00;14.50;;;;;;;;;;5015434;28;20725;-71
2024/02/28 10:46:39;;;;;;;15.30;14.70;;;;;;;;;;5015612;28;20458;-72
2024/02/28 10:49:07;;;;;;;15.40;14.80;;;;;;;;;;5018621;28;20524;-72
2024/02/28 10:51:36;;;;;;;15.20;14.63;;;;;;;;;;5015996;28;20483;-72
2024/02/28 10:54:11;;;;;;;14.43;13.93;;;;;;;;;;5015470;28;20475;-72
2024/02/28 10:56:38;;;;;;;14.90;14.40;;;;;;;;;;5013301;28;20489;-72
2024/02/28 10:59:08;;;;;;;15.60;15.00;;;;;;;;;;5015507;28;20485;-72
2024/02/28 11:01:36;;;;;;;15.50;14.90;;;;;;;;;;5015491;28;20489;-71
2024/02/28 11:04:04;;;;;;;15.50;14.90;;;;;;;;;;5012985;28;21080;-71
2024/02/28 11:06:31;;;;;;;15.17;14.57;;;;;;;;;;5015541;28;22120;-71
2024/02/28 11:09:00;;;;;;;15.20;14.60;;;;;;;;;;5017388;28;20459;-72
2024/02/28 11:11:32;;;;;;;15.00;14.50;;;;;;;;;;5014312;28;20465;-71
2024/02/28 11:14:00;;;;;;;15.10;14.53;;;;;;;;;;5017543;28;20469;-71
2024/02/28 11:16:29;;;;;;;15.20;14.60;;;;;;;;;;5014292;28;20515;-71
2024/02/28 11:18:56;;;;;;;15.40;14.80;;;;;;;;;;5012859;28;20468;-72
2024/02/28 11:21:27;;;;;;;14.90;14.40;;;;;;;;;;5018704;28;20464;-73
2024/02/28 11:23:54;;;;;;;15.30;14.70;;;;;;;;;;5011425;28;20599;-73
2024/02/28 11:26:21;;;;;;;15.90;15.30;;;;;;;;;;5009882;28;21032;-72
2024/02/28 11:28:49;;;;;;;15.40;14.80;;;;;;;;;;5015867;28;20465;-72
2024/02/28 11:31:18;;;;;;;14.80;14.30;;;;;;;;;;5016080;28;20511;-72
2024/02/28 11:33:47;;;;;;;15.37;14.77;;;;;;;;;;5015487;28;20466;-72
2024/02/28 11:36:14;;;;;;;15.33;14.73;;;;;;;;;;5017035;28;20500;-72
2024/02/28 11:38:41;;;;;;;15.10;14.50;;;;;;;;;;5016435;28;20462;-72
2024/02/28 11:41:09;;;;;;;15.10;14.50;;;;;;;;;;5016860;28;20852;-72
2024/02/28 11:43:36;;;;;;;15.70;15.10;;;;;;;;;;5015737;28;20534;-73
2024/02/28 11:46:04;;;;;;;15.37;14.77;;;;;;;;;;5012840;28;20461;-73
2024/02/28 11:48:32;;;;;;;15.40;14.80;;;;;;;;;;5015646;28;20461;-73
2024/02/28 11:51:01;;;;;;;15.97;15.37;;;;;;;;;;5015801;28;20535;-74
2024/02/28 11:53:28;;;;;;;15.90;15.30;;;;;;;;;;5013045;28;20465;-72
2024/02/28 11:55:56;;;;;;;15.60;15.00;;;;;;;;;;5016170;28;20484;-72
2024/02/28 11:58:24;;;;;;;15.60;15.00;;;;;;;;;;5014412;28;20521;-72
2024/02/28 12:01:06;;;;;;;15.20;14.60;;;;;;;;;;5014553;28;20493;-71
2024/02/28 12:03:33;;;;;;;15.90;15.30;;;;;;;;;;5014189;28;20472;-71
2024/02/28 12:06:01;;;;;;;16.33;15.63;;;;;;;;;;5014415;28;20976;-72
2024/02/28 12:08:29;;;;;;;15.70;15.10;;;;;;;;;;5016202;28;20476;-71
2024/02/28 12:10:56;;;;;;;15.50;14.90;;;;;;;;;;5015739;28;20463;-74
2024/02/28 12:13:24;;;;;;;15.47;14.87;;;;;;;;;;5014994;28;20977;-73
2024/02/28 12:15:51;;;;;;;14.70;14.20;;;;;;;;;;5014533;28;20467;-72
2024/02/28 12:18:18;;;;;;;15.20;14.60;;;;;;;;;;5012517;28;20470;-73
2024/02/28 12:20:47;;;;;;;15.00;14.50;;;;;;;;;;5015180;28;20990;-70
2024/02/28 12:23:17;;;;;;;15.40;14.80;;;;;;;;;;5013361;28;20469;-70
2024/02/28 12:25:45;;;;;;;14.77;14.27;;;;;;;;;;5014917;28;20465;-70
2024/02/28 12:28:13;;;;;;;14.53;14.03;;;;;;;;;;5014681;28;20473;-70
2024/02/28 12:30:41;;;;;;;14.40;13.90;;;;;;;;;;5013722;28;21008;-71
2024/02/28 12:33:08;;;;;;;14.80;14.30;;;;;;;;;;5015789;28;20470;-71
2024/02/28 12:35:36;;;;;;;15.50;14.90;;;;;;;;;;5010131;28;20500;-71
2024/02/28 12:38:03;;;;;;;15.20;14.60;;;;;;;;;;5016187;28;21100;-72
2024/02/28 12:40:31;;;;;;;14.97;14.40;;;;;;;;;;5014376;28;20473;-73
2024/02/28 12:42:58;;;;;;;15.10;14.50;;;;;;;;;;5013738;28;20861;-71
2024/02/28 12:45:26;;;;;;;15.87;15.27;;;;;;;;;;5011269;28;20467;-70
2024/02/28 12:47:56;;;;;;;15.73;15.13;;;;;;;;;;5016272;28;20465;-70
2024/02/28 12:50:24;;;;;;;15.07;14.47;;;;;;;;;;5014676;28;20966;-71
2024/02/28 12:52:53;;;;;;;14.73;14.23;;;;;;;;;;5014111;28;20474;-72
2024/02/28 12:55:21;;;;;;;14.57;14.07;;;;;;;;;;5012889;28;20903;-71
2024/02/28 12:57:50;;;;;;;14.60;14.10;;;;;;;;;;5010956;28;20590;-71
2024/02/28 13:00:17;;;;;;;14.63;14.13;;;;;;;;;;5015145;28;20495;-72
2024/02/28 13:02:45;;;;;;;15.00;14.40;;;;;;;;;;5011370;28;20836;-70
2024/02/28 13:05:13;;;;;;;15.50;14.90;;;;;;;;;;5016788;28;20589;-71
2024/02/28 13:07:41;;;;;;;15.57;14.97;;;;;;;;;;5015235;28;20548;-71
2024/02/28 13:10:09;;;;;;;15.30;14.70;;;;;;;;;;5013012;28;20867;-70
2024/02/28 13:12:36;;;;;;;15.40;14.80;;;;;;;;;;5013494;28;20466;-71
2024/02/28 13:15:05;;;;;;;15.30;14.70;;;;;;;;;;5012477;28;20838;-70
2024/02/28 13:17:33;;;;;;;15.77;15.17;;;;;;;;;;5013931;28;20517;-70
2024/02/28 13:20:00;;;;;;;15.87;15.27;;;;;;;;;;5014626;28;20472;-71
2024/02/28 13:22:27;;;;;;;15.83;15.23;;;;;;;;;;5010220;28;20497;-73
2024/02/28 13:24:55;;;;;;;15.80;15.20;;;;;;;;;;5013961;28;20468;-71
2024/02/28 13:27:22;;;;;;;15.80;15.20;;;;;;;;;;5013206;28;20492;-73
2024/02/28 13:29:49;;;;;;;15.60;15.00;;;;;;;;;;5014375;28;20502;-71
2024/02/28 13:32:17;;;;;;;15.80;15.20;;;;;;;;;;5012541;28;21669;-70
2024/02/28 13:34:44;;;;;;;16.13;15.53;;;;;;;;;;5013353;28;20470;-70
2024/02/28 13:37:12;;;;;;;15.80;15.20;;;;;;;;;;5012451;28;20493;-71
2024/02/28 13:39:39;;;;;;;16.40;15.70;;;;;;;;;;5014794;28;20484;-71
2024/02/28 13:42:09;;;;;;;16.20;15.60;;;;;;;;;;5012422;28;20825;-71
2024/02/28 13:44:37;;;;;;;16.40;15.70;;;;;;;;;;5014883;28;20463;-72
2024/02/28 13:47:05;;;;;;;16.07;15.47;;;;;;;;;;5015719;28;20470;-71
2024/02/28 13:49:34;;;;;;;16.13;15.53;;;;;;;;;;5017313;28;20942;-73
2024/02/28 13:52:01;;;;;;;16.00;15.40;;;;;;;;;;5017913;28;20542;-72
2024/02/28 13:54:28;;;;;;;16.10;15.50;;;;;;;;;;5017109;28;20474;-73
2024/02/28 13:56:55;;;;;;;16.23;15.63;;;;;;;;;;5018412;28;20480;-71
2024/02/28 13:59:23;;;;;;;15.50;14.90;;;;;;;;;;5012642;28;20474;-71
2024/02/28 14:01:50;;;;;;;16.20;15.60;;;;;;;;;;5016957;28;20491;-71
2024/02/28 14:04:19;;;;;;;16.60;15.90;;;;;;;;;;5015802;28;21318;-71
2024/02/28 14:06:48;;;;;;;16.00;15.40;;;;;;;;;;5011015;28;20756;-73
2024/02/28 14:09:15;;;;;;;16.40;15.80;;;;;;;;;;5012513;28;20925;-71
2024/02/28 14:11:42;;;;;;;16.20;15.60;;;;;;;;;;5020131;28;20470;-72
2024/02/28 14:14:10;;;;;;;16.50;15.80;;;;;;;;;;5015388;28;20477;-71
2024/02/28 14:16:38;;;;;;;16.60;15.90;;;;;;;;;;5013722;28;20490;-71
2024/02/28 14:19:06;;;;;;;16.90;16.20;;;;;;;;;;5016485;28;20476;-71
2024/02/28 14:21:33;;;;;;;16.80;16.10;;;;;;;;;;5016949;28;20853;-72
2024/02/28 14:24:02;;;;;;;17.30;16.60;;;;;;;;;;5016599;28;21024;-73
2024/02/28 14:26:29;;;;;;;16.90;16.20;;;;;;;;;;5013020;28;20462;-73
2024/02/28 14:28:56;;;;;;;16.50;15.87;;;;;;;;;;5015490;28;20842;-72